Aurora, Kentucky
Current Conditions -  °F | °C
As of 12:35 PM on Monday 26 Jan 2015 (Local Time) from KCEY Reporting Station
Few Clouds Few Clouds  
Wind Chill: -1°   Ceiling: Unl
Heat Index:   Visibility: 10mi
Dew Point: -3°   Wind: 10mph
Humidity: 65%   Direction: 290°WNW
Pressure: 30"   Gusts: NA
Location:  36.7761°N, 88.2528°W
Report Text: KCEY 261835Z AUTO 29009KT 10SM FEW026 03/M03 A3000 RMK AO1
Loading
Personal Weather Stations






























Interactive Weather Map New forecast layout! Learn more

10-Day Weather Forecast

Advertisements
Track Severe Weather on mobile